createdAt,value
2023-02-13T00:00:46.738Z,-3.08
2023-02-13T00:03:21.966Z,-3.00
2023-02-13T00:05:48.928Z,-2.94
2023-02-13T00:08:16.147Z,-2.88
2023-02-13T00:10:43.110Z,-2.77
2023-02-13T00:13:10.265Z,-2.73
2023-02-13T00:15:37.269Z,-2.66
2023-02-13T00:18:04.799Z,-2.60
2023-02-13T00:20:31.864Z,-2.56
2023-02-13T00:23:02.038Z,-2.50
2023-02-13T00:25:28.984Z,-2.44
2023-02-13T00:27:56.244Z,-2.38
2023-02-13T00:30:23.178Z,-2.35
2023-02-13T00:32:50.360Z,-2.37
2023-02-13T00:35:17.668Z,-2.39
2023-02-13T00:37:44.809Z,-2.35
2023-02-13T00:40:12.426Z,-2.43
2023-02-13T00:42:39.604Z,-2.53
2023-02-13T00:45:06.725Z,-2.61
2023-02-13T00:47:33.905Z,-2.67
2023-02-13T00:50:00.820Z,-2.66
2023-02-13T00:52:28.026Z,-2.63
2023-02-13T00:54:54.971Z,-2.58
2023-02-13T00:57:22.206Z,-2.54
2023-02-13T00:59:50.983Z,-2.50
2023-02-13T01:02:18.470Z,-2.45
2023-02-13T01:04:45.373Z,-2.43
2023-02-13T01:07:12.728Z,-2.37
2023-02-13T01:09:39.672Z,-2.34
2023-02-13T01:12:07.080Z,-2.34
2023-02-13T01:14:34.217Z,-2.31
2023-02-13T01:17:01.508Z,-2.23
2023-02-13T01:19:28.392Z,-2.16
2023-02-13T01:21:55.563Z,-2.11
2023-02-13T01:24:22.421Z,-2.07
2023-02-13T01:26:49.557Z,-2.06
2023-02-13T01:29:16.428Z,-2.03
2023-02-13T01:31:43.749Z,-1.94
2023-02-13T01:34:10.675Z,-1.90
2023-02-13T01:36:37.920Z,-1.86
2023-02-13T01:39:04.846Z,-1.85
2023-02-13T01:41:32.140Z,-1.81
2023-02-13T01:44:01.184Z,-1.74
2023-02-13T01:46:42.873Z,-1.71
2023-02-13T01:49:18.702Z,-1.66
2023-02-13T01:51:47.442Z,-1.63
2023-02-13T01:54:17.722Z,-1.58
2023-02-13T01:56:51.940Z,-1.54
2023-02-13T01:59:22.285Z,-1.52
2023-02-13T02:01:49.628Z,-1.49
2023-02-13T02:04:31.696Z,-1.50
2023-02-13T02:07:05.196Z,-1.44
2023-02-13T02:09:43.051Z,-1.47
2023-02-13T02:12:34.315Z,-1.41
2023-02-13T02:15:03.422Z,-1.36
2023-02-13T02:17:30.988Z,-1.30
2023-02-13T02:20:24.846Z,-1.31
2023-02-13T02:23:04.177Z,-1.26
2023-02-13T02:25:39.715Z,-1.24
2023-02-13T02:29:04.185Z,-1.26
2023-02-13T02:31:55.532Z,-1.23
2023-02-13T02:34:25.282Z,-1.20
2023-02-13T02:37:17.957Z,-1.17
2023-02-13T02:39:54.142Z,-1.15
2023-02-13T02:42:33.225Z,-1.11
2023-02-13T02:45:33.209Z,-1.07
2023-02-13T02:48:24.546Z,-1.01
2023-02-13T02:51:16.389Z,-0.96
2023-02-13T02:54:26.264Z,-0.88
2023-02-13T02:56:57.249Z,-0.85
2023-02-13T02:59:44.185Z,-0.82
2023-02-13T03:02:32.105Z,-0.78
2023-02-13T03:05:20.021Z,-0.74
2023-02-13T03:07:47.249Z,-0.76
2023-02-13T03:10:49.693Z,-0.74
2023-02-13T03:13:52.923Z,-0.74
2023-02-13T03:16:43.083Z,-0.71
2023-02-13T03:19:45.245Z,-0.69
2023-02-13T03:22:42.960Z,-0.71
2023-02-13T03:25:18.980Z,-0.65
2023-02-13T03:28:41.431Z,-0.63
2023-02-13T03:31:17.607Z,-0.56
2023-02-13T03:34:09.404Z,-0.53
2023-02-13T03:37:14.072Z,-0.50
2023-02-13T03:39:40.879Z,-0.45
2023-02-13T03:42:18.589Z,-0.37
2023-02-13T03:45:32.514Z,-0.32
2023-02-13T03:48:09.943Z,-0.28
2023-02-13T03:50:44.002Z,-0.19
2023-02-13T03:53:14.722Z,-0.10
2023-02-13T03:56:05.049Z,-0.08
2023-02-13T03:59:05.047Z,-0.01
2023-02-13T04:01:35.818Z,0.02
2023-02-13T04:04:05.949Z,0.07
2023-02-13T04:06:43.027Z,0.06
2023-02-13T04:09:10.543Z,0.01
2023-02-13T04:11:37.375Z,0.02
2023-02-13T04:14:31.094Z,0.03
2023-02-13T04:17:16.179Z,0.07
2023-02-13T04:19:43.593Z,0.07
2023-02-13T04:22:12.683Z,0.07
2023-02-13T04:24:39.857Z,0.09
2023-02-13T04:27:06.734Z,0.08
2023-02-13T04:29:33.903Z,0.07
2023-02-13T04:32:00.902Z,0.04
2023-02-13T04:34:28.139Z,0.02
2023-02-13T04:36:54.997Z,0.04
2023-02-13T04:39:22.238Z,0.01
2023-02-13T04:41:49.161Z,0.02
2023-02-13T04:44:16.358Z,-0.01
2023-02-13T04:46:43.234Z,0.00
2023-02-13T04:49:11.255Z,0.00
2023-02-13T04:51:38.109Z,0.01
2023-02-13T04:54:05.374Z,0.06
2023-02-13T04:56:32.244Z,0.08
2023-02-13T04:58:59.477Z,0.08
2023-02-13T05:01:26.351Z,0.13
2023-02-13T05:03:53.520Z,0.14
2023-02-13T05:06:20.461Z,0.18
2023-02-13T05:08:47.670Z,0.22
2023-02-13T05:11:14.597Z,0.20
2023-02-13T05:13:41.800Z,0.20
2023-02-13T05:16:08.939Z,0.24
2023-02-13T05:18:36.348Z,0.24
2023-02-13T05:21:21.799Z,0.26
2023-02-13T05:23:49.004Z,0.25
2023-02-13T05:26:15.923Z,0.26
2023-02-13T05:29:01.677Z,0.27
2023-02-13T05:31:28.684Z,0.26
2023-02-13T05:33:56.008Z,0.29
2023-02-13T05:36:22.914Z,0.36
2023-02-13T05:38:50.113Z,0.39
2023-02-13T05:41:16.980Z,0.43
2023-02-13T05:43:44.176Z,0.49
2023-02-13T05:46:11.177Z,0.55
2023-02-13T05:48:38.441Z,0.59
2023-02-13T05:51:05.678Z,0.60
2023-02-13T05:53:35.478Z,0.63
2023-02-13T05:56:06.149Z,0.62
2023-02-13T05:58:34.659Z,0.64
2023-02-13T06:01:02.481Z,0.69
2023-02-13T06:03:32.052Z,0.70
2023-02-13T06:05:59.990Z,0.71
2023-02-13T06:08:27.431Z,0.75
2023-02-13T06:10:54.444Z,0.75
2023-02-13T06:13:21.636Z,0.78
2023-02-13T06:15:48.630Z,0.83
2023-02-13T06:18:15.804Z,0.87
2023-02-13T06:20:42.726Z,0.91
2023-02-13T06:23:09.876Z,0.96
2023-02-13T06:25:37.125Z,1.01
2023-02-13T06:28:05.405Z,1.01
2023-02-13T06:30:32.775Z,1.03
2023-02-13T06:33:00.127Z,1.05
2023-02-13T06:35:27.846Z,1.01
2023-02-13T06:37:55.034Z,0.99
2023-02-13T06:40:21.940Z,0.99
2023-02-13T06:42:49.200Z,1.04
2023-02-13T06:45:16.198Z,1.04
2023-02-13T06:47:45.325Z,1.04
2023-02-13T06:50:14.498Z,1.08
2023-02-13T06:52:51.958Z,1.12
2023-02-13T06:55:19.205Z,1.16
2023-02-13T06:57:47.078Z,1.20
2023-02-13T07:00:15.550Z,1.24
2023-02-13T07:02:44.703Z,1.31
2023-02-13T07:05:12.499Z,1.34
2023-02-13T07:07:41.627Z,1.37
2023-02-13T07:10:11.277Z,1.39
2023-02-13T07:12:38.558Z,1.43
2023-02-13T07:15:06.630Z,1.52
2023-02-13T07:17:34.211Z,1.61
2023-02-13T07:20:01.319Z,1.69
2023-02-13T07:22:28.525Z,1.74
2023-02-13T07:24:55.876Z,1.76
2023-02-13T07:27:23.120Z,1.83
2023-02-13T07:29:50.053Z,1.88
2023-02-13T07:32:17.252Z,1.96
2023-02-13T07:34:59.542Z,2.03
2023-02-13T07:37:29.661Z,2.13
2023-02-13T07:39:56.607Z,2.19
2023-02-13T07:42:23.816Z,2.28
2023-02-13T07:44:50.761Z,2.35
2023-02-13T07:47:20.165Z,2.37
2023-02-13T07:49:47.499Z,2.46
2023-02-13T07:52:14.828Z,2.50
2023-02-13T07:54:47.834Z,2.64
2023-02-13T08:00:11.076Z,2.84
2023-02-13T08:02:38.232Z,2.98
2023-02-13T08:05:05.712Z,3.11
2023-02-13T08:07:33.046Z,3.21
2023-02-13T08:10:18.498Z,3.27
2023-02-13T08:12:46.384Z,3.34
2023-02-13T08:15:15.504Z,3.39
2023-02-13T08:17:42.714Z,3.46
2023-02-13T08:20:10.281Z,3.48
2023-02-13T08:22:38.657Z,3.50
2023-02-13T08:25:07.143Z,3.59
2023-02-13T08:27:34.773Z,3.57
2023-02-13T08:30:03.264Z,3.54
2023-02-13T08:32:30.537Z,3.47
2023-02-13T08:34:57.550Z,3.46
2023-02-13T08:37:24.949Z,3.47
2023-02-13T08:40:15.591Z,3.50
2023-02-13T08:42:45.266Z,3.54
2023-02-13T08:45:12.163Z,3.62
2023-02-13T08:47:42.227Z,3.67
2023-02-13T08:50:09.672Z,3.60
2023-02-13T08:52:36.851Z,3.61
2023-02-13T08:55:03.938Z,3.71
2023-02-13T08:57:31.582Z,3.78
2023-02-13T09:00:00.078Z,3.78
2023-02-13T09:02:27.561Z,3.79
2023-02-13T09:04:55.441Z,3.82
2023-02-13T09:07:22.777Z,3.88
2023-02-13T09:09:49.742Z,3.95
2023-02-13T09:13:24.872Z,4.04
2023-02-13T09:15:52.124Z,4.14
2023-02-13T09:18:19.520Z,4.23
2023-02-13T09:20:46.541Z,4.38
2023-02-13T09:23:13.697Z,4.42
2023-02-13T09:25:40.683Z,4.54
2023-02-13T09:28:07.944Z,4.57
2023-02-13T09:30:35.013Z,4.56
2023-02-13T09:33:02.210Z,4.54
2023-02-13T09:35:29.299Z,4.51
2023-02-13T09:37:56.583Z,4.46
2023-02-13T09:40:37.642Z,4.34
2023-02-13T09:43:17.635Z,4.28
2023-02-13T09:45:48.190Z,4.27
2023-02-13T09:48:29.422Z,4.36
2023-02-13T09:50:57.926Z,4.43
2023-02-13T09:53:28.669Z,4.49
2023-02-13T09:56:14.807Z,4.60
2023-02-13T09:58:48.481Z,4.69
2023-02-13T10:01:19.046Z,4.75
2023-02-13T10:04:23.141Z,4.69
2023-02-13T10:07:12.713Z,4.65
2023-02-13T10:10:02.403Z,4.63
2023-02-13T10:13:15.823Z,4.54
2023-02-13T10:15:50.836Z,4.57
2023-02-13T10:18:25.994Z,4.65
2023-02-13T10:20:57.777Z,4.80
2023-02-13T10:23:44.692Z,4.82
2023-02-13T10:26:43.652Z,4.94
2023-02-13T10:29:35.081Z,5.14
2023-02-13T10:32:09.303Z,5.31
2023-02-13T10:34:46.126Z,5.39
2023-02-13T10:37:19.306Z,5.45
2023-02-13T10:39:49.161Z,5.45
2023-02-13T10:42:38.533Z,5.45
2023-02-13T10:45:26.545Z,5.29
2023-02-13T10:48:29.188Z,5.23
2023-02-13T10:51:36.108Z,5.34
2023-02-13T10:54:35.811Z,5.41
2023-02-13T10:57:25.142Z,5.38
2023-02-13T11:00:03.496Z,5.38
2023-02-13T11:02:34.935Z,5.37
2023-02-13T11:05:15.793Z,5.47
2023-02-13T11:07:44.349Z,5.53
2023-02-13T11:10:18.079Z,5.57
2023-02-13T11:12:45.556Z,5.72
2023-02-13T11:15:33.090Z,5.74
2023-02-13T11:18:11.846Z,5.67
2023-02-13T11:20:49.984Z,5.68
2023-02-13T11:23:24.908Z,5.71
2023-02-13T11:26:00.669Z,5.76
2023-02-13T11:28:36.197Z,5.78
2023-02-13T11:31:11.525Z,5.77
2023-02-13T11:33:38.514Z,5.79
2023-02-13T11:36:09.234Z,5.72
2023-02-13T11:38:36.371Z,5.59
2023-02-13T11:41:10.256Z,5.58
2023-02-13T11:43:46.297Z,5.58
2023-02-13T11:46:21.986Z,5.56
2023-02-13T11:48:59.398Z,5.56
2023-02-13T11:51:35.760Z,5.48
2023-02-13T11:54:03.369Z,5.45
2023-02-13T11:57:03.368Z,5.48
2023-02-13T11:59:38.707Z,5.70
2023-02-13T12:02:28.751Z,5.92
2023-02-13T12:05:17.165Z,6.04
2023-02-13T12:07:46.228Z,6.00
2023-02-13T12:10:19.158Z,5.87
2023-02-13T12:12:55.565Z,5.82
2023-02-13T12:15:31.988Z,5.84
2023-02-13T12:18:08.431Z,5.86
2023-02-13T12:21:16.025Z,5.96
2023-02-13T12:24:04.585Z,6.00
2023-02-13T12:26:40.701Z,6.09
2023-02-13T12:29:23.466Z,5.99
2023-02-13T12:32:05.348Z,5.97
2023-02-13T12:34:54.389Z,5.90
2023-02-13T12:37:24.272Z,5.86
2023-02-13T12:40:24.741Z,5.77
2023-02-13T12:43:15.924Z,5.70
2023-02-13T12:45:57.723Z,5.62
2023-02-13T12:48:45.085Z,5.59
2023-02-13T12:51:18.041Z,5.62
2023-02-13T12:54:05.183Z,5.67
2023-02-13T12:56:35.140Z,5.69
2023-02-13T12:59:17.451Z,5.73
2023-02-13T13:02:24.302Z,5.78
2023-02-13T13:04:53.886Z,5.88
2023-02-13T13:07:26.949Z,6.06
2023-02-13T13:10:21.481Z,6.48
2023-02-13T13:13:22.744Z,6.70
2023-02-13T13:16:19.373Z,6.70
2023-02-13T13:19:03.546Z,6.52
2023-02-13T13:21:36.730Z,6.49
2023-02-13T13:24:06.943Z,6.45
2023-02-13T13:26:47.006Z,6.41
2023-02-13T13:29:28.024Z,6.35
2023-02-13T13:32:03.949Z,6.44
2023-02-13T13:34:34.513Z,6.43
2023-02-13T13:37:11.917Z,6.26
2023-02-13T13:39:57.677Z,6.14
2023-02-13T13:42:42.833Z,6.12
2023-02-13T13:45:21.127Z,6.11
2023-02-13T13:48:06.410Z,6.14
2023-02-13T13:50:37.864Z,6.12
2023-02-13T13:53:09.144Z,6.06
2023-02-13T13:55:52.949Z,5.84
2023-02-13T13:58:47.382Z,5.68
2023-02-13T14:01:14.746Z,5.63
2023-02-13T14:03:44.336Z,5.53
2023-02-13T14:06:14.725Z,5.44
2023-02-13T14:08:41.611Z,5.44
2023-02-13T14:11:38.072Z,5.38
2023-02-13T14:14:32.615Z,5.39
2023-02-13T14:17:04.652Z,5.40
2023-02-13T14:19:37.756Z,5.31
2023-02-13T14:22:20.364Z,5.24
2023-02-13T14:24:56.576Z,5.22
2023-02-13T14:27:33.498Z,5.16
2023-02-13T14:30:01.737Z,5.04
2023-02-13T14:32:34.395Z,4.92
2023-02-13T14:35:06.295Z,4.82
2023-02-13T14:37:40.302Z,4.74
2023-02-13T14:40:12.676Z,4.74
2023-02-13T14:42:41.077Z,4.70
2023-02-13T14:45:18.867Z,4.62
2023-02-13T14:47:56.644Z,4.65
2023-02-13T14:50:38.123Z,4.61
2023-02-13T14:53:24.513Z,4.58
2023-02-13T14:55:58.172Z,4.53
2023-02-13T14:58:34.214Z,4.52
2023-02-13T15:01:21.246Z,4.47
2023-02-13T15:03:54.822Z,4.43
2023-02-13T15:06:27.736Z,4.40
2023-02-13T15:08:59.172Z,4.37
2023-02-13T15:11:43.676Z,4.33
2023-02-13T15:14:26.212Z,4.29
2023-02-13T15:16:57.223Z,4.27
2023-02-13T15:19:25.862Z,4.25
2023-02-13T15:21:59.489Z,4.23
2023-02-13T15:24:35.595Z,4.14
2023-02-13T15:27:05.863Z,4.11
2023-02-13T15:29:47.959Z,4.09
2023-02-13T15:32:31.255Z,4.03
2023-02-13T15:34:58.937Z,4.03
2023-02-13T15:37:30.124Z,4.01
2023-02-13T15:40:15.261Z,3.97
2023-02-13T15:42:42.545Z,3.98
2023-02-13T15:45:17.871Z,3.98
2023-02-13T15:47:46.756Z,3.99
2023-02-13T15:50:18.029Z,3.87
2023-02-13T15:52:45.874Z,3.82
2023-02-13T15:55:24.950Z,3.78
2023-02-13T15:57:55.976Z,3.79
2023-02-13T16:00:25.253Z,3.77
2023-02-13T16:02:55.066Z,3.72
2023-02-13T16:05:38.986Z,3.71
2023-02-13T16:08:27.403Z,3.68
2023-02-13T16:11:16.406Z,3.70
2023-02-13T16:14:21.922Z,3.69
2023-02-13T16:16:54.981Z,3.68
2023-02-13T16:20:00.286Z,3.65
2023-02-13T16:22:41.043Z,3.62
2023-02-13T16:25:17.070Z,3.59
2023-02-13T16:27:48.320Z,3.64
2023-02-13T16:30:24.219Z,3.63
2023-02-13T16:32:51.937Z,3.67
2023-02-13T16:35:30.716Z,3.68
2023-02-13T16:38:01.823Z,3.66
2023-02-13T16:40:31.837Z,3.69
2023-02-13T16:43:53.090Z,3.63
2023-02-13T16:46:36.200Z,3.61
2023-02-13T16:49:09.921Z,3.59
2023-02-13T16:51:41.095Z,3.60
2023-02-13T16:54:11.117Z,3.60
2023-02-13T16:56:38.077Z,3.62
2023-02-13T16:59:40.704Z,3.59
2023-02-13T17:02:28.018Z,3.58
2023-02-13T17:05:07.780Z,3.55
2023-02-13T17:07:40.432Z,3.58
2023-02-13T17:10:28.271Z,3.62
2023-02-13T17:12:58.344Z,3.61
2023-02-13T17:15:28.140Z,3.61
2023-02-13T17:17:55.262Z,3.62
2023-02-13T17:20:43.141Z,3.62
2023-02-13T17:23:17.540Z,3.64
2023-02-13T17:25:47.538Z,3.62
2023-02-13T17:28:16.997Z,3.62
2023-02-13T17:30:45.086Z,3.62
2023-02-13T17:33:19.641Z,3.61
2023-02-13T17:35:47.191Z,3.59
2023-02-13T17:38:14.440Z,3.60
2023-02-13T17:40:43.244Z,3.58
2023-02-13T17:43:15.404Z,3.59
2023-02-13T17:45:43.788Z,3.55
2023-02-13T17:48:10.772Z,3.54
2023-02-13T17:50:38.954Z,3.54
2023-02-13T17:53:08.818Z,3.53
2023-02-13T17:55:36.100Z,3.53
2023-02-13T17:58:03.135Z,3.49
2023-02-13T18:00:33.212Z,3.43
2023-02-13T18:03:01.355Z,3.44
2023-02-13T18:05:29.090Z,3.42
2023-02-13T18:07:56.090Z,3.40
2023-02-13T18:10:28.906Z,3.39
2023-02-13T18:12:58.406Z,3.37
2023-02-13T18:15:25.652Z,3.33
2023-02-13T18:17:52.542Z,3.29
2023-02-13T18:20:20.923Z,3.32
2023-02-13T18:22:50.629Z,3.30
2023-02-13T18:25:19.896Z,3.26
2023-02-13T18:27:47.981Z,3.26
2023-02-13T18:30:18.380Z,3.24
2023-02-13T18:32:45.897Z,3.27
2023-02-13T18:35:13.248Z,3.25
2023-02-13T18:37:40.479Z,3.22
2023-02-13T18:40:09.000Z,3.26
2023-02-13T18:42:36.210Z,3.23
2023-02-13T18:45:04.143Z,3.20
2023-02-13T18:47:31.193Z,3.15
2023-02-13T18:49:58.406Z,3.17
2023-02-13T18:52:25.352Z,3.18
2023-02-13T18:54:52.577Z,3.13
2023-02-13T18:57:19.539Z,3.15
2023-02-13T18:59:46.749Z,3.10
2023-02-13T19:02:13.729Z,3.10
2023-02-13T19:04:41.025Z,3.04
2023-02-13T19:07:07.865Z,3.03
2023-02-13T19:09:40.142Z,3.01
2023-02-13T19:12:08.202Z,3.01
2023-02-13T19:14:35.389Z,3.04
2023-02-13T19:17:02.554Z,3.03
2023-02-13T19:19:30.370Z,3.01
2023-02-13T19:21:57.327Z,2.99
2023-02-13T19:24:24.537Z,2.94
2023-02-13T19:26:51.501Z,2.92
2023-02-13T19:29:18.929Z,2.93
2023-02-13T19:31:45.980Z,2.92
2023-02-13T19:34:13.253Z,2.90
2023-02-13T19:36:40.182Z,2.91
2023-02-13T19:39:09.310Z,2.88
2023-02-13T19:41:36.398Z,2.87
2023-02-13T19:44:05.414Z,2.87
2023-02-13T19:46:32.807Z,2.85
2023-02-13T19:49:00.823Z,2.81
2023-02-13T19:51:30.548Z,2.79
2023-02-13T19:54:03.763Z,2.80
2023-02-13T19:56:32.031Z,2.82
2023-02-13T19:58:59.322Z,2.83
2023-02-13T20:01:28.054Z,2.82
2023-02-13T20:03:55.917Z,2.81
2023-02-13T20:06:25.373Z,2.81
2023-02-13T20:08:53.038Z,2.79
2023-02-13T20:11:22.252Z,2.79
2023-02-13T20:13:55.530Z,2.76
2023-02-13T20:16:23.362Z,2.71
2023-02-13T20:18:51.608Z,2.69
2023-02-13T20:21:19.587Z,2.68
2023-02-13T20:23:51.626Z,2.65
2023-02-13T20:26:19.284Z,2.64
2023-02-13T20:28:48.079Z,2.62
2023-02-13T20:31:20.920Z,2.60
2023-02-13T20:33:49.477Z,2.48
2023-02-13T20:36:22.224Z,2.49
2023-02-13T20:38:52.404Z,2.50
2023-02-13T20:41:24.672Z,2.52
2023-02-13T20:43:52.341Z,2.45
2023-02-13T20:46:19.680Z,2.48
2023-02-13T20:48:48.617Z,2.47
2023-02-13T20:51:17.251Z,2.45
2023-02-13T20:53:45.748Z,2.44
2023-02-13T20:56:12.790Z,2.43
2023-02-13T20:58:41.458Z,2.42
2023-02-13T21:01:20.571Z,2.38
2023-02-13T21:03:53.493Z,2.40
2023-02-13T21:06:26.988Z,2.38
2023-02-13T21:08:54.638Z,2.34
2023-02-13T21:11:22.421Z,2.36
2023-02-13T21:13:49.848Z,2.35
2023-02-13T21:16:22.427Z,2.37
2023-02-13T21:18:55.152Z,2.37
2023-02-13T21:21:23.964Z,2.37
2023-02-13T21:23:55.854Z,2.37
2023-02-13T21:26:23.024Z,2.38
2023-02-13T21:28:50.862Z,2.36
2023-02-13T21:31:23.881Z,2.39
2023-02-13T21:33:52.485Z,2.38
2023-02-13T21:36:19.686Z,2.37
2023-02-13T21:38:46.889Z,2.37
2023-02-13T21:41:16.701Z,2.41
2023-02-13T21:43:46.838Z,2.38
2023-02-13T21:46:21.013Z,2.41
2023-02-13T21:48:53.095Z,2.43
2023-02-13T21:51:21.197Z,2.45
2023-02-13T21:53:49.312Z,2.43
2023-02-13T21:56:25.193Z,2.47
2023-02-13T21:58:53.033Z,2.46
2023-02-13T22:01:26.737Z,2.46
2023-02-13T22:04:00.922Z,2.45
2023-02-13T22:06:30.279Z,2.38
2023-02-13T22:09:03.019Z,2.36
2023-02-13T22:11:30.084Z,2.35
2023-02-13T22:14:01.764Z,2.33
2023-02-13T22:16:30.751Z,2.32
2023-02-13T22:18:58.564Z,2.33
2023-02-13T22:21:28.198Z,2.27
2023-02-13T22:23:55.413Z,2.27
2023-02-13T22:26:31.384Z,2.25
2023-02-13T22:29:04.633Z,2.21
2023-02-13T22:31:32.173Z,2.23
2023-02-13T22:34:04.725Z,2.23
2023-02-13T22:36:39.171Z,2.17
2023-02-13T22:39:08.310Z,2.16
2023-02-13T22:41:35.278Z,2.12
2023-02-13T22:44:02.482Z,2.10
2023-02-13T22:46:31.382Z,2.05
2023-02-13T22:48:59.702Z,2.03
2023-02-13T22:51:30.014Z,2.02
2023-02-13T22:53:59.057Z,1.97
2023-02-13T22:56:27.964Z,1.97
2023-02-13T22:58:55.025Z,1.93
2023-02-13T23:01:24.330Z,1.92
2023-02-13T23:03:51.639Z,1.88
2023-02-13T23:06:19.640Z,1.91
2023-02-13T23:08:49.158Z,1.87
2023-02-13T23:11:35.265Z,1.83
2023-02-13T23:14:03.055Z,1.86
2023-02-13T23:16:53.194Z,1.80
2023-02-13T23:19:21.786Z,1.84
2023-02-13T23:21:49.206Z,1.86
2023-02-13T23:24:17.072Z,1.83
2023-02-13T23:26:44.534Z,1.86
2023-02-13T23:29:11.772Z,1.85
2023-02-13T23:31:38.784Z,1.87
2023-02-13T23:34:06.142Z,1.86
2023-02-13T23:36:34.651Z,1.90
2023-02-13T23:39:02.085Z,1.92
2023-02-13T23:41:29.112Z,1.88
2023-02-13T23:43:56.323Z,1.90
2023-02-13T23:46:23.274Z,1.91
2023-02-13T23:48:50.449Z,1.93
2023-02-13T23:51:18.558Z,1.92
2023-02-13T23:53:45.857Z,1.89
2023-02-13T23:56:12.734Z,1.91
2023-02-13T23:58:40.051Z,1.89
